Time;durP1;ratioP1;P1;durP2;ratioP2;P2;SDS_P1;SDS_P2;PMS_P1;PMS_P2;Temp;Humidity;BMP_temperature;BMP_pressure;BME280_temperature;BME280_humidity;BME280_pressure;Samples;Min_cycle;Max_cycle;Signal;HPM_P1;HPM_P2
2023/12/06 00:00:26;;;;;;;0.90;0.90;;;;;;;;;;6282055;22;20223;-78
2023/12/06 00:02:53;;;;;;;1.10;1.10;;;;;;;;;;6281915;22;20592;-78
2023/12/06 00:05:22;;;;;;;1.10;1.10;;;;;;;;;;6280795;22;20247;-79
2023/12/06 00:07:49;;;;;;;1.50;1.40;;;;;;;;;;6282837;22;20268;-79
2023/12/06 00:10:16;;;;;;;1.38;1.27;;;;;;;;;;6281246;22;20172;-79
2023/12/06 00:12:42;;;;;;;1.23;1.20;;;;;;;;;;6282101;22;20204;-79
2023/12/06 00:15:11;;;;;;;1.10;1.10;;;;;;;;;;6281810;22;20172;-78
2023/12/06 00:17:38;;;;;;;1.48;1.17;;;;;;;;;;6281768;22;20263;-79
2023/12/06 00:20:08;;;;;;;0.98;0.98;;;;;;;;;;6281045;22;20688;-79
2023/12/06 00:22:36;;;;;;;1.13;1.13;;;;;;;;;;6282771;22;20664;-78
2023/12/06 00:25:05;;;;;;;1.30;1.30;;;;;;;;;;6282794;22;20206;-78
2023/12/06 00:27:33;;;;;;;1.58;1.48;;;;;;;;;;6282203;22;20177;-78
2023/12/06 00:30:00;;;;;;;1.90;1.67;;;;;;;;;;6282337;22;20267;-79
2023/12/06 00:32:28;;;;;;;1.98;1.75;;;;;;;;;;6282727;22;20727;-77
2023/12/06 00:34:55;;;;;;;1.60;1.38;;;;;;;;;;6282275;22;20555;-79
2023/12/06 00:37:23;;;;;;;5.05;3.35;;;;;;;;;;6281986;22;20614;-79
2023/12/06 00:39:52;;;;;;;2.80;2.50;;;;;;;;;;6281939;22;20200;-79
2023/12/06 00:42:19;;;;;;;4.57;2.63;;;;;;;;;;6281967;22;20195;-79
2023/12/06 00:44:48;;;;;;;2.55;2.35;;;;;;;;;;6282062;22;20259;-78
2023/12/06 00:47:15;;;;;;;1.88;1.75;;;;;;;;;;6282089;22;20180;-78
2023/12/06 00:49:43;;;;;;;2.00;1.80;;;;;;;;;;6282005;22;20244;-79
2023/12/06 00:52:10;;;;;;;3.85;3.05;;;;;;;;;;6281510;22;20196;-79
2023/12/06 00:54:37;;;;;;;2.63;2.00;;;;;;;;;;6281741;22;20275;-79
2023/12/06 00:57:06;;;;;;;2.30;2.10;;;;;;;;;;6281868;22;20255;-78
2023/12/06 00:59:34;;;;;;;1.77;1.63;;;;;;;;;;6281221;22;20208;-79
2023/12/06 01:02:01;;;;;;;1.80;1.55;;;;;;;;;;6282243;22;20211;-78
2023/12/06 01:04:29;;;;;;;2.20;2.10;;;;;;;;;;6281732;22;20176;-79
2023/12/06 01:06:56;;;;;;;2.03;1.90;;;;;;;;;;6282184;22;20547;-78
2023/12/06 01:09:24;;;;;;;2.90;2.65;;;;;;;;;;6282366;22;20227;-79
2023/12/06 01:11:51;;;;;;;1.90;1.80;;;;;;;;;;6282404;22;20176;-78
2023/12/06 01:14:20;;;;;;;3.80;2.17;;;;;;;;;;6282543;22;20255;-79
2023/12/06 01:16:48;;;;;;;2.45;2.28;;;;;;;;;;6282663;22;20176;-77
2023/12/06 01:19:16;;;;;;;2.40;2.20;;;;;;;;;;6284070;22;20228;-78
2023/12/06 01:21:43;;;;;;;2.00;1.90;;;;;;;;;;6284814;22;20618;-78
2023/12/06 01:24:11;;;;;;;1.92;1.83;;;;;;;;;;6283317;22;20215;-79
2023/12/06 01:26:38;;;;;;;1.98;1.88;;;;;;;;;;6283803;22;20187;-78
2023/12/06 01:29:08;;;;;;;2.42;2.22;;;;;;;;;;6283618;22;20220;-79
2023/12/06 01:31:38;;;;;;;2.65;2.45;;;;;;;;;;6283823;22;20176;-79
2023/12/06 01:34:05;;;;;;;2.00;1.90;;;;;;;;;;6284157;22;20168;-78
2023/12/06 01:36:33;;;;;;;1.75;1.65;;;;;;;;;;6284203;22;20207;-78
2023/12/06 01:39:00;;;;;;;2.90;2.67;;;;;;;;;;6284068;22;20271;-79
2023/12/06 01:41:28;;;;;;;2.45;2.30;;;;;;;;;;6283815;22;20228;-79
2023/12/06 01:43:55;;;;;;;3.10;2.90;;;;;;;;;;6283673;22;20259;-78
2023/12/06 01:46:22;;;;;;;2.53;2.40;;;;;;;;;;6283279;22;20211;-78
2023/12/06 01:48:52;;;;;;;2.47;2.28;;;;;;;;;;6283394;22;20227;-79
2023/12/06 01:51:19;;;;;;;2.28;2.08;;;;;;;;;;6283391;22;20204;-77
2023/12/06 01:53:47;;;;;;;2.40;2.20;;;;;;;;;;6283334;22;20676;-78
2023/12/06 01:56:14;;;;;;;1.88;1.77;;;;;;;;;;6283816;22;20228;-79
2023/12/06 01:58:42;;;;;;;1.88;1.77;;;;;;;;;;6284045;22;20227;-79
2023/12/06 02:01:10;;;;;;;2.33;2.20;;;;;;;;;;6283803;22;20279;-78
2023/12/06 02:03:37;;;;;;;1.52;1.42;;;;;;;;;;6283854;22;20630;-79
2023/12/06 02:06:08;;;;;;;2.30;2.13;;;;;;;;;;6283464;22;20232;-79
2023/12/06 02:08:37;;;;;;;2.47;2.28;;;;;;;;;;6284094;22;20235;-78
2023/12/06 02:11:05;;;;;;;2.72;2.45;;;;;;;;;;6283438;22;20219;-79
2023/12/06 02:13:32;;;;;;;2.25;2.13;;;;;;;;;;6283617;22;20173;-79
2023/12/06 02:16:00;;;;;;;1.83;1.73;;;;;;;;;;6283306;22;20226;-78
2023/12/06 02:18:28;;;;;;;1.88;1.73;;;;;;;;;;6282890;22;20592;-78
2023/12/06 02:20:56;;;;;;;2.22;2.03;;;;;;;;;;6283845;22;20199;-77
2023/12/06 02:23:31;;;;;;;2.33;2.15;;;;;;;;;;6283824;22;20216;-78
2023/12/06 02:26:00;;;;;;;3.10;2.35;;;;;;;;;;6283596;22;20554;-78
2023/12/06 02:28:27;;;;;;;2.13;2.03;;;;;;;;;;6282954;22;20228;-79
2023/12/06 02:30:55;;;;;;;1.85;1.75;;;;;;;;;;6283404;22;20203;-78
2023/12/06 02:33:23;;;;;;;2.83;2.58;;;;;;;;;;6283072;22;20252;-79
2023/12/06 02:35:54;;;;;;;2.30;2.10;;;;;;;;;;6283808;22;20263;-77
2023/12/06 02:38:22;;;;;;;2.00;1.90;;;;;;;;;;6284438;22;20235;-77
2023/12/06 02:40:51;;;;;;;1.90;1.80;;;;;;;;;;6282590;22;20295;-79
2023/12/06 02:43:20;;;;;;;1.50;1.40;;;;;;;;;;6283359;22;20254;-78
2023/12/06 02:45:48;;;;;;;2.22;2.05;;;;;;;;;;6283747;22;20204;-79
2023/12/06 02:48:17;;;;;;;1.48;1.38;;;;;;;;;;6283276;22;20224;-78
2023/12/06 02:50:45;;;;;;;1.42;1.40;;;;;;;;;;6282952;22;20180;-79
2023/12/06 02:53:12;;;;;;;2.28;2.15;;;;;;;;;;6282851;22;20207;-78
2023/12/06 02:55:40;;;;;;;1.60;1.50;;;;;;;;;;6283005;22;20207;-79
2023/12/06 02:58:08;;;;;;;1.60;1.50;;;;;;;;;;6282880;22;20183;-79
2023/12/06 03:00:36;;;;;;;1.70;1.60;;;;;;;;;;6283000;22;20236;-79
2023/12/06 03:03:04;;;;;;;2.90;2.70;;;;;;;;;;6282490;22;20211;-78
2023/12/06 03:05:32;;;;;;;1.92;1.80;;;;;;;;;;6282875;22;20208;-77
2023/12/06 03:07:59;;;;;;;2.30;2.10;;;;;;;;;;6283289;22;20204;-79
2023/12/06 03:10:26;;;;;;;1.85;1.75;;;;;;;;;;6282373;22;20224;-77
2023/12/06 03:12:54;;;;;;;1.70;1.60;;;;;;;;;;6283604;22;20196;-79
2023/12/06 03:15:21;;;;;;;1.77;1.67;;;;;;;;;;6282083;22;20568;-78
2023/12/06 03:17:50;;;;;;;2.42;2.08;;;;;;;;;;6283170;22;20203;-78
2023/12/06 03:20:17;;;;;;;1.60;1.50;;;;;;;;;;6282375;22;20681;-78
2023/12/06 03:22:45;;;;;;;1.52;1.42;;;;;;;;;;6282292;22;20228;-79
2023/12/06 03:25:12;;;;;;;2.03;1.92;;;;;;;;;;6282162;22;20224;-79
2023/12/06 03:27:42;;;;;;;2.35;2.20;;;;;;;;;;6282570;22;20259;-79
2023/12/06 03:30:09;;;;;;;2.33;2.17;;;;;;;;;;6283771;22;20262;-79
2023/12/06 03:32:37;;;;;;;2.13;2.03;;;;;;;;;;6282538;22;20227;-79
2023/12/06 03:35:08;;;;;;;1.75;1.65;;;;;;;;;;6282813;22;20629;-78
2023/12/06 03:37:35;;;;;;;1.83;1.73;;;;;;;;;;6282943;22;20255;-78
2023/12/06 03:40:03;;;;;;;1.75;1.65;;;;;;;;;;6282075;22;20216;-79
2023/12/06 03:42:30;;;;;;;1.60;1.50;;;;;;;;;;6282794;22;20235;-79
2023/12/06 03:44:58;;;;;;;1.58;1.48;;;;;;;;;;6282263;22;20251;-79
2023/12/06 03:47:25;;;;;;;1.27;1.27;;;;;;;;;;6283009;22;20226;-79
2023/12/06 03:49:54;;;;;;;1.65;1.55;;;;;;;;;;6282721;22;20275;-78
2023/12/06 03:52:23;;;;;;;1.38;1.27;;;;;;;;;;6282418;22;20192;-78
2023/12/06 03:54:50;;;;;;;1.83;1.73;;;;;;;;;;6282362;22;20251;-79
2023/12/06 03:57:17;;;;;;;1.70;1.60;;;;;;;;;;6283526;22;20232;-79
2023/12/06 03:59:45;;;;;;;1.77;1.67;;;;;;;;;;6282807;22;20681;-78
2023/12/06 04:02:12;;;;;;;1.63;1.52;;;;;;;;;;6282232;22;20283;-79
2023/12/06 04:04:40;;;;;;;1.35;1.27;;;;;;;;;;6283061;22;20196;-78
2023/12/06 04:07:07;;;;;;;1.55;1.45;;;;;;;;;;6282258;22;20255;-78
2023/12/06 04:09:36;;;;;;;1.27;1.20;;;;;;;;;;6282582;22;20855;-78
2023/12/06 04:12:05;;;;;;;1.58;1.48;;;;;;;;;;6281799;22;20173;-79
2023/12/06 04:14:33;;;;;;;1.42;1.33;;;;;;;;;;6282439;22;20200;-78
2023/12/06 04:17:01;;;;;;;1.50;1.40;;;;;;;;;;6282927;22;20555;-79
2023/12/06 04:19:28;;;;;;;1.60;1.50;;;;;;;;;;6283069;22;20203;-79
2023/12/06 04:21:55;;;;;;;1.30;1.20;;;;;;;;;;6281830;22;20584;-78
2023/12/06 04:24:23;;;;;;;1.38;1.27;;;;;;;;;;6282159;22;20220;-79
2023/12/06 04:26:52;;;;;;;2.08;1.98;;;;;;;;;;6282653;22;20224;-78
2023/12/06 04:29:19;;;;;;;1.50;1.40;;;;;;;;;;6282219;22;20220;-79
2023/12/06 04:31:47;;;;;;;1.52;1.42;;;;;;;;;;6282229;22;20210;-78
2023/12/06 04:34:14;;;;;;;1.38;1.27;;;;;;;;;;6283744;22;20252;-78
2023/12/06 04:36:42;;;;;;;1.30;1.20;;;;;;;;;;6281938;22;20207;-79
2023/12/06 04:39:09;;;;;;;1.50;1.40;;;;;;;;;;6282000;22;20224;-79
2023/12/06 04:41:36;;;;;;;1.50;1.40;;;;;;;;;;6281939;22;20239;-79
2023/12/06 04:44:06;;;;;;;1.33;1.23;;;;;;;;;;6279174;22;20207;-78
2023/12/06 04:46:33;;;;;;;1.02;1.02;;;;;;;;;;6273895;22;20567;-78
2023/12/06 04:49:01;;;;;;;1.27;1.27;;;;;;;;;;6273629;22;20322;-78
2023/12/06 04:51:28;;;;;;;1.50;1.40;;;;;;;;;;6273363;22;20688;-78
2023/12/06 04:53:56;;;;;;;1.70;1.60;;;;;;;;;;6274181;22;20176;-78
2023/12/06 04:56:23;;;;;;;1.23;1.23;;;;;;;;;;6274808;22;20184;-79
2023/12/06 04:58:50;;;;;;;1.73;1.63;;;;;;;;;;6273266;22;20287;-78
2023/12/06 05:01:19;;;;;;;1.35;1.20;;;;;;;;;;6277066;22;20233;-79
2023/12/06 05:03:47;;;;;;;1.17;1.17;;;;;;;;;;6282385;22;20712;-77
2023/12/06 05:06:14;;;;;;;1.08;1.00;;;;;;;;;;6281826;22;20177;-78
2023/12/06 05:08:42;;;;;;;1.10;1.10;;;;;;;;;;6282692;22;20275;-79
2023/12/06 05:11:09;;;;;;;1.50;1.40;;;;;;;;;;6282442;22;20180;-77
2023/12/06 05:13:36;;;;;;;1.58;1.48;;;;;;;;;;6281255;22;20656;-80
2023/12/06 05:16:05;;;;;;;1.77;1.67;;;;;;;;;;6280602;22;20247;-80
2023/12/06 05:18:33;;;;;;;1.50;1.40;;;;;;;;;;6282170;22;20222;-79
2023/12/06 05:21:01;;;;;;;1.73;1.63;;;;;;;;;;6281204;22;20652;-80
2023/12/06 05:23:28;;;;;;;2.72;2.22;;;;;;;;;;6280061;22;20275;-79
2023/12/06 05:25:56;;;;;;;2.17;2.05;;;;;;;;;;6280572;22;20637;-78
2023/12/06 05:28:23;;;;;;;2.22;2.03;;;;;;;;;;6280585;22;20208;-78
2023/12/06 05:30:51;;;;;;;2.40;2.20;;;;;;;;;;6280678;22;20196;-80
2023/12/06 05:33:18;;;;;;;2.65;2.45;;;;;;;;;;6280223;22;20546;-78
2023/12/06 05:35:48;;;;;;;2.25;2.05;;;;;;;;;;6282305;22;20567;-78
2023/12/06 05:38:15;;;;;;;1.73;1.63;;;;;;;;;;6282456;22;20248;-78
2023/12/06 05:40:43;;;;;;;1.92;1.70;;;;;;;;;;6281646;22;20196;-79
2023/12/06 05:43:10;;;;;;;3.08;2.78;;;;;;;;;;6281837;22;20271;-80
2023/12/06 05:45:38;;;;;;;2.40;2.00;;;;;;;;;;6282120;22;20686;-80
2023/12/06 05:48:06;;;;;;;2.47;2.28;;;;;;;;;;6281248;22;20196;-80
2023/12/06 05:50:33;;;;;;;1.90;1.80;;;;;;;;;;6281282;22;20274;-79
2023/12/06 05:53:03;;;;;;;1.98;1.88;;;;;;;;;;6282166;22;20725;-79
2023/12/06 05:55:31;;;;;;;2.30;2.20;;;;;;;;;;6282435;22;20193;-79
2023/12/06 05:57:58;;;;;;;2.78;2.58;;;;;;;;;;6281208;22;20649;-79
2023/12/06 06:00:26;;;;;;;2.15;1.95;;;;;;;;;;6281344;22;20247;-78
2023/12/06 06:02:55;;;;;;;1.80;1.70;;;;;;;;;;6282399;22;20224;-78
2023/12/06 06:05:23;;;;;;;2.42;2.22;;;;;;;;;;6283988;22;20176;-78
2023/12/06 06:07:50;;;;;;;2.85;2.60;;;;;;;;;;6284069;22;20173;-78
2023/12/06 06:10:19;;;;;;;2.58;2.38;;;;;;;;;;6283967;22;20563;-79
2023/12/06 06:12:47;;;;;;;2.00;1.83;;;;;;;;;;6284013;22;20207;-79
2023/12/06 06:15:14;;;;;;;1.80;1.70;;;;;;;;;;6283554;22;20227;-78
2023/12/06 06:17:43;;;;;;;1.90;1.80;;;;;;;;;;6284042;22;20637;-78
2023/12/06 06:20:11;;;;;;;1.75;1.65;;;;;;;;;;6283858;22;20204;-78
2023/12/06 06:22:39;;;;;;;1.83;1.70;;;;;;;;;;6283714;22;20206;-77
2023/12/06 06:25:08;;;;;;;1.73;1.63;;;;;;;;;;6282967;22;20724;-79
2023/12/06 06:27:37;;;;;;;1.90;1.80;;;;;;;;;;6283284;22;20184;-79
2023/12/06 06:30:06;;;;;;;1.70;1.60;;;;;;;;;;6284123;22;20197;-79
2023/12/06 06:32:34;;;;;;;1.42;1.33;;;;;;;;;;6283590;22;20208;-78
2023/12/06 06:35:02;;;;;;;1.90;1.80;;;;;;;;;;6284618;22;20176;-79
2023/12/06 06:37:29;;;;;;;1.98;1.88;;;;;;;;;;6283780;22;20576;-78
2023/12/06 06:39:56;;;;;;;1.95;1.80;;;;;;;;;;6282946;22;20275;-79
2023/12/06 06:42:24;;;;;;;2.13;1.88;;;;;;;;;;6283696;22;20251;-78
2023/12/06 06:44:55;;;;;;;1.60;1.50;;;;;;;;;;6284193;22;20280;-79
2023/12/06 06:47:23;;;;;;;1.67;1.58;;;;;;;;;;6284096;22;20164;-78
2023/12/06 06:49:50;;;;;;;1.60;1.50;;;;;;;;;;6284361;22;20224;-79
2023/12/06 06:52:18;;;;;;;5.75;3.78;;;;;;;;;;6282937;22;20693;-79
2023/12/06 06:54:45;;;;;;;4.78;2.95;;;;;;;;;;6284563;22;20172;-79
2023/12/06 06:57:13;;;;;;;2.70;1.95;;;;;;;;;;6284035;22;20633;-79
2023/12/06 06:59:40;;;;;;;2.35;1.85;;;;;;;;;;6283903;22;20229;-80
2023/12/06 07:02:10;;;;;;;2.33;2.13;;;;;;;;;;6284470;22;20208;-79
2023/12/06 07:04:37;;;;;;;1.70;1.60;;;;;;;;;;6284261;22;20200;-79
2023/12/06 07:07:05;;;;;;;1.70;1.60;;;;;;;;;;6283727;22;20251;-79
2023/12/06 07:09:33;;;;;;;1.88;1.77;;;;;;;;;;6284394;22;20267;-79
2023/12/06 07:12:00;;;;;;;2.78;2.58;;;;;;;;;;6283966;22;20245;-79
2023/12/06 07:14:27;;;;;;;3.92;3.30;;;;;;;;;;6283819;22;20573;-78
2023/12/06 07:16:55;;;;;;;2.20;2.10;;;;;;;;;;6283583;22;20200;-79
2023/12/06 07:19:24;;;;;;;2.55;2.35;;;;;;;;;;6284030;22;20192;-79
2023/12/06 07:21:52;;;;;;;1.80;1.70;;;;;;;;;;6284428;22;20259;-79
2023/12/06 07:24:20;;;;;;;2.30;2.10;;;;;;;;;;6283034;22;20196;-78
2023/12/06 07:26:48;;;;;;;2.10;2.00;;;;;;;;;;6283936;22;20208;-79
2023/12/06 07:29:15;;;;;;;2.80;2.60;;;;;;;;;;6283587;22;20275;-79
2023/12/06 07:31:42;;;;;;;3.13;2.92;;;;;;;;;;6284031;22;20176;-79
2023/12/06 07:34:10;;;;;;;2.20;2.00;;;;;;;;;;6284162;22;20256;-78
2023/12/06 07:36:39;;;;;;;2.78;2.58;;;;;;;;;;6283978;22;20183;-79
2023/12/06 07:39:07;;;;;;;3.13;2.92;;;;;;;;;;6282917;22;20219;-78
2023/12/06 07:41:34;;;;;;;3.00;2.70;;;;;;;;;;6283731;22;20176;-79
2023/12/06 07:44:01;;;;;;;2.88;2.63;;;;;;;;;;6284973;22;20230;-79
2023/12/06 07:46:29;;;;;;;3.58;3.28;;;;;;;;;;6283743;22;20176;-79
2023/12/06 07:48:56;;;;;;;3.13;2.85;;;;;;;;;;6283819;22;20216;-79
2023/12/06 07:51:24;;;;;;;3.10;2.88;;;;;;;;;;6282945;22;20232;-78
2023/12/06 07:53:53;;;;;;;3.03;2.60;;;;;;;;;;6282865;22;20251;-78
2023/12/06 07:56:20;;;;;;;3.58;3.08;;;;;;;;;;6283516;22;20230;-80
2023/12/06 07:58:50;;;;;;;4.50;4.10;;;;;;;;;;6282239;22;20196;-78
2023/12/06 08:01:18;;;;;;;4.07;3.72;;;;;;;;;;6282043;22;20164;-79
2023/12/06 08:03:45;;;;;;;4.00;3.47;;;;;;;;;;6282419;22;20601;-79
2023/12/06 08:06:13;;;;;;;4.15;3.75;;;;;;;;;;6282946;22;20176;-79
2023/12/06 08:08:40;;;;;;;4.13;3.80;;;;;;;;;;6283057;22;20196;-79
2023/12/06 08:11:10;;;;;;;4.03;3.63;;;;;;;;;;6282149;22;20218;-79
2023/12/06 08:13:37;;;;;;;2.42;2.22;;;;;;;;;;6283078;22;20179;-79
2023/12/06 08:16:06;;;;;;;2.85;2.65;;;;;;;;;;6281848;22;20572;-79
2023/12/06 08:18:33;;;;;;;3.67;2.92;;;;;;;;;;6282568;22;20227;-79
2023/12/06 08:21:03;;;;;;;3.13;2.83;;;;;;;;;;6281770;22;20224;-78
2023/12/06 08:23:30;;;;;;;2.80;2.60;;;;;;;;;;6282077;22;20186;-79
2023/12/06 08:25:58;;;;;;;3.53;3.17;;;;;;;;;;6282409;22;20204;-80
2023/12/06 08:28:27;;;;;;;3.42;3.03;;;;;;;;;;6282872;22;20203;-79
2023/12/06 08:30:54;;;;;;;3.60;3.28;;;;;;;;;;6282051;22;20229;-79
2023/12/06 08:33:23;;;;;;;3.15;2.88;;;;;;;;;;6281538;22;20176;-79
2023/12/06 08:35:52;;;;;;;3.65;3.35;;;;;;;;;;6283106;22;20172;-79
2023/12/06 08:38:19;;;;;;;2.67;2.47;;;;;;;;;;6283069;22;20251;-79
2023/12/06 08:40:46;;;;;;;4.10;3.70;;;;;;;;;;6281816;22;20255;-79
2023/12/06 08:43:14;;;;;;;4.20;3.80;;;;;;;;;;6281975;22;20182;-79
2023/12/06 08:45:43;;;;;;;6.03;5.45;;;;;;;;;;6282391;22;20263;-79
2023/12/06 08:48:10;;;;;;;4.47;4.07;;;;;;;;;;6282150;22;20203;-79
2023/12/06 08:50:38;;;;;;;5.20;4.70;;;;;;;;;;6280916;22;20200;-79
2023/12/06 08:53:05;;;;;;;4.55;4.15;;;;;;;;;;6283370;22;20256;-79
2023/12/06 08:55:33;;;;;;;4.80;4.40;;;;;;;;;;6282390;22;20227;-78
2023/12/06 08:58:00;;;;;;;4.75;4.35;;;;;;;;;;6281801;22;20176;-78
2023/12/06 09:00:27;;;;;;;4.32;3.92;;;;;;;;;;6280524;22;20917;-80
2023/12/06 09:02:56;;;;;;;5.40;4.93;;;;;;;;;;6282092;22;20200;-80
2023/12/06 09:05:24;;;;;;;6.20;5.70;;;;;;;;;;6281263;22;20769;-80
2023/12/06 09:07:51;;;;;;;5.20;4.65;;;;;;;;;;6280757;22;20255;-79
2023/12/06 09:10:18;;;;;;;5.15;4.65;;;;;;;;;;6281977;22;20204;-78
2023/12/06 09:12:46;;;;;;;4.78;4.28;;;;;;;;;;6281813;22;20228;-80
2023/12/06 09:15:13;;;;;;;4.35;4.05;;;;;;;;;;6281289;22;20250;-79
2023/12/06 09:17:41;;;;;;;5.60;5.10;;;;;;;;;;6281776;22;20207;-80
2023/12/06 09:20:11;;;;;;;7.50;5.60;;;;;;;;;;6281172;22;20268;-80
2023/12/06 09:22:38;;;;;;;5.68;5.10;;;;;;;;;;6280342;22;20259;-79
2023/12/06 09:25:07;;;;;;;6.38;5.63;;;;;;;;;;6281644;22;20275;-80
2023/12/06 09:27:35;;;;;;;7.15;6.13;;;;;;;;;;6282776;22;20224;-80
2023/12/06 09:30:03;;;;;;;6.03;5.50;;;;;;;;;;6281901;22;20248;-79
2023/12/06 09:32:31;;;;;;;6.43;5.50;;;;;;;;;;6282531;22;20215;-79
2023/12/06 09:34:58;;;;;;;7.25;6.55;;;;;;;;;;6282255;22;20208;-79
2023/12/06 09:37:27;;;;;;;6.05;5.15;;;;;;;;;;6281970;22;20207;-79
2023/12/06 09:39:55;;;;;;;6.88;6.18;;;;;;;;;;6283306;22;20204;-79
2023/12/06 09:42:23;;;;;;;8.15;7.13;;;;;;;;;;6283435;22;20240;-79
2023/12/06 09:44:51;;;;;;;7.05;6.22;;;;;;;;;;6283576;22;20540;-79
2023/12/06 09:47:20;;;;;;;6.95;6.28;;;;;;;;;;6283032;22;20184;-79
2023/12/06 09:49:48;;;;;;;8.63;7.53;;;;;;;;;;6283872;22;20216;-79
2023/12/06 09:52:22;;;;;;;7.78;6.97;;;;;;;;;;6283824;22;20625;-78
2023/12/06 09:54:52;;;;;;;6.32;5.72;;;;;;;;;;6284720;22;20176;-79
2023/12/06 09:57:20;;;;;;;6.47;5.88;;;;;;;;;;6284564;22;20168;-79
2023/12/06 09:59:47;;;;;;;9.18;7.97;;;;;;;;;;6283514;22;20199;-80
2023/12/06 10:02:15;;;;;;;7.82;7.03;;;;;;;;;;6283807;22;20222;-79
2023/12/06 10:04:43;;;;;;;8.35;7.05;;;;;;;;;;6282978;22;20286;-79
2023/12/06 10:07:11;;;;;;;6.15;5.55;;;;;;;;;;6283712;22;20235;-79
2023/12/06 10:09:38;;;;;;;9.40;7.53;;;;;;;;;;6284213;22;20196;-78
2023/12/06 10:12:11;;;;;;;7.93;6.90;;;;;;;;;;6283500;22;20260;-79
2023/12/06 10:14:39;;;;;;;6.30;5.70;;;;;;;;;;6284359;22;20160;-79
2023/12/06 10:17:09;;;;;;;6.82;6.15;;;;;;;;;;6284220;22;20692;-79
2023/12/06 10:19:37;;;;;;;8.15;7.35;;;;;;;;;;6283966;22;20688;-79
2023/12/06 10:22:05;;;;;;;6.95;6.15;;;;;;;;;;6283376;22;20256;-80
2023/12/06 10:24:33;;;;;;;9.38;8.38;;;;;;;;;;6282864;22;20507;-80
2023/12/06 10:27:10;;;;;;;8.65;7.15;;;;;;;;;;6283504;22;20256;-79
2023/12/06 10:29:39;;;;;;;9.50;8.07;;;;;;;;;;6283276;22;20220;-78
2023/12/06 10:32:09;;;;;;;8.00;7.05;;;;;;;;;;6283750;22;20180;-78
2023/12/06 10:34:37;;;;;;;6.40;5.80;;;;;;;;;;6283675;22;20172;-78
2023/12/06 10:37:05;;;;;;;7.70;6.93;;;;;;;;;;6284346;22;20196;-78
2023/12/06 10:39:33;;;;;;;7.40;6.55;;;;;;;;;;6283670;22;20220;-79
2023/12/06 10:42:03;;;;;;;7.25;6.55;;;;;;;;;;6284097;22;20235;-78
2023/12/06 10:44:31;;;;;;;7.90;6.80;;;;;;;;;;6285572;22;20247;-79
2023/12/06 10:47:00;;;;;;;6.80;6.07;;;;;;;;;;6284250;22;20276;-79
2023/12/06 10:49:29;;;;;;;6.13;5.60;;;;;;;;;;6283165;22;20227;-79
2023/12/06 10:51:56;;;;;;;6.97;6.22;;;;;;;;;;6283834;22;20172;-79
2023/12/06 10:54:25;;;;;;;6.00;5.20;;;;;;;;;;6284196;22;20177;-78
2023/12/06 10:56:55;;;;;;;6.20;5.60;;;;;;;;;;6284850;22;20203;-80
2023/12/06 10:59:25;;;;;;;6.18;5.35;;;;;;;;;;6284064;22;20274;-79
2023/12/06 11:01:52;;;;;;;5.03;4.53;;;;;;;;;;6284367;22;20202;-79
2023/12/06 11:04:21;;;;;;;3.88;3.50;;;;;;;;;;6284167;22;20200;-79
2023/12/06 11:07:01;;;;;;;5.43;4.20;;;;;;;;;;6284506;22;20203;-79
2023/12/06 11:09:38;;;;;;;4.40;4.00;;;;;;;;;;6285721;22;20275;-79
2023/12/06 11:12:15;;;;;;;4.90;4.50;;;;;;;;;;6284509;22;20156;-79
2023/12/06 11:15:09;;;;;;;4.10;3.78;;;;;;;;;;6283719;22;20534;-79
2023/12/06 11:17:44;;;;;;;4.45;4.05;;;;;;;;;;6283658;22;20625;-80
2023/12/06 11:20:14;;;;;;;5.47;4.97;;;;;;;;;;6283551;22;20274;-80
2023/12/06 11:22:42;;;;;;;4.72;4.32;;;;;;;;;;6283445;22;20262;-80
2023/12/06 11:25:10;;;;;;;7.70;6.97;;;;;;;;;;6282462;22;20232;-79
2023/12/06 11:27:41;;;;;;;6.30;5.60;;;;;;;;;;6283639;22;20205;-79
2023/12/06 11:30:17;;;;;;;5.85;5.35;;;;;;;;;;6283366;22;20192;-79
2023/12/06 11:32:46;;;;;;;4.60;4.28;;;;;;;;;;6283701;22;20160;-79
2023/12/06 11:35:15;;;;;;;5.15;4.57;;;;;;;;;;6283094;22;20180;-79
2023/12/06 11:37:53;;;;;;;6.97;6.28;;;;;;;;;;6283259;22;20180;-79
2023/12/06 11:40:24;;;;;;;9.00;7.32;;;;;;;;;;6282947;22;20210;-78
2023/12/06 11:42:57;;;;;;;6.47;5.80;;;;;;;;;;6283062;22;20160;-80
2023/12/06 11:45:29;;;;;;;6.72;6.13;;;;;;;;;;6283162;22;20160;-79
2023/12/06 11:47:59;;;;;;;6.00;5.40;;;;;;;;;;6283012;22;20655;-80
2023/12/06 11:50:28;;;;;;;4.90;4.43;;;;;;;;;;6281659;22;20177;-79
2023/12/06 11:52:56;;;;;;;7.53;6.82;;;;;;;;;;6282734;22;20176;-80
2023/12/06 11:55:25;;;;;;;5.40;4.90;;;;;;;;;;6283205;22;20251;-79
2023/12/06 11:58:03;;;;;;;5.22;4.72;;;;;;;;;;6283286;22;20172;-80
2023/12/06 12:00:31;;;;;;;7.95;7.07;;;;;;;;;;6282711;22;20347;-79
2023/12/06 12:03:00;;;;;;;6.93;6.22;;;;;;;;;;6282489;22;20183;-79
2023/12/06 12:05:29;;;;;;;6.35;5.75;;;;;;;;;;6283235;22;20182;-79
2023/12/06 12:07:58;;;;;;;5.93;5.43;;;;;;;;;;6282575;22;20219;-79
2023/12/06 12:10:26;;;;;;;5.75;5.18;;;;;;;;;;6281736;22;20570;-79
2023/12/06 12:12:54;;;;;;;8.95;7.20;;;;;;;;;;6283168;22;20571;-80
2023/12/06 12:15:21;;;;;;;6.90;6.20;;;;;;;;;;6282480;22;20200;-79
2023/12/06 12:17:49;;;;;;;6.30;5.68;;;;;;;;;;6282656;22;20176;-79
2023/12/06 12:20:16;;;;;;;10.05;9.05;;;;;;;;;;6282362;22;20275;-79
2023/12/06 12:22:48;;;;;;;7.18;6.47;;;;;;;;;;6283220;22;20184;-80
2023/12/06 12:25:16;;;;;;;6.88;5.60;;;;;;;;;;6283103;22;20210;-79
2023/12/06 12:27:45;;;;;;;6.05;5.45;;;;;;;;;;6281816;22;20676;-79
2023/12/06 12:30:13;;;;;;;7.65;5.97;;;;;;;;;;6282325;22;20247;-80
2023/12/06 12:32:44;;;;;;;5.53;5.03;;;;;;;;;;6282357;22;20207;-79
2023/12/06 12:35:11;;;;;;;6.28;5.35;;;;;;;;;;6282593;22;20192;-80
2023/12/06 12:37:39;;;;;;;6.40;5.70;;;;;;;;;;6282179;22;20172;-79
2023/12/06 12:40:10;;;;;;;6.65;5.65;;;;;;;;;;6282515;22;20235;-80
2023/12/06 12:42:40;;;;;;;5.78;4.70;;;;;;;;;;6282734;22;20243;-80
2023/12/06 12:45:11;;;;;;;6.55;5.95;;;;;;;;;;6283322;22;20156;-79
2023/12/06 12:47:38;;;;;;;6.53;5.68;;;;;;;;;;6283229;22;20235;-79
2023/12/06 12:50:08;;;;;;;6.40;5.80;;;;;;;;;;6282009;22;20203;-80
2023/12/06 12:52:38;;;;;;;6.25;5.43;;;;;;;;;;6282601;22;20551;-80
2023/12/06 12:55:08;;;;;;;6.20;5.60;;;;;;;;;;6283100;22;20215;-79
2023/12/06 12:57:36;;;;;;;5.40;4.90;;;;;;;;;;6282782;22;20536;-79
2023/12/06 13:00:06;;;;;;;4.32;3.85;;;;;;;;;;6281732;22;20223;-80
2023/12/06 13:02:34;;;;;;;6.75;6.10;;;;;;;;;;6282115;22;20176;-79
2023/12/06 13:05:04;;;;;;;6.15;5.53;;;;;;;;;;6282778;22;20255;-80
2023/12/06 13:07:35;;;;;;;5.25;4.75;;;;;;;;;;6281233;22;20192;-80
2023/12/06 13:10:04;;;;;;;5.80;5.22;;;;;;;;;;6281770;22;20203;-80
2023/12/06 13:12:33;;;;;;;6.40;5.50;;;;;;;;;;6283604;22;20654;-79
2023/12/06 13:15:00;;;;;;;5.25;4.85;;;;;;;;;;6285009;22;20279;-79
2023/12/06 13:17:29;;;;;;;7.30;5.80;;;;;;;;;;6284378;22;20200;-79
2023/12/06 13:19:57;;;;;;;6.82;5.10;;;;;;;;;;6284641;22;20271;-79
2023/12/06 13:22:24;;;;;;;6.47;5.75;;;;;;;;;;6284457;22;20184;-78
2023/12/06 13:24:52;;;;;;;6.10;5.47;;;;;;;;;;6285023;22;20207;-79
2023/12/06 13:27:19;;;;;;;4.35;4.05;;;;;;;;;;6284027;22;20251;-79
2023/12/06 13:29:48;;;;;;;4.68;4.18;;;;;;;;;;6285495;22;20602;-79
2023/12/06 13:32:15;;;;;;;6.00;5.40;;;;;;;;;;6284120;22;20231;-79
2023/12/06 13:34:43;;;;;;;4.13;3.72;;;;;;;;;;6284666;22;20626;-79
2023/12/06 13:37:12;;;;;;;4.05;3.65;;;;;;;;;;6284586;22;20504;-78
2023/12/06 13:39:40;;;;;;;8.50;7.00;;;;;;;;;;6284659;22;20193;-79
2023/12/06 13:42:08;;;;;;;7.05;6.35;;;;;;;;;;6283607;22;20180;-79
2023/12/06 13:44:35;;;;;;;4.97;4.57;;;;;;;;;;6284560;22;20200;-81
2023/12/06 13:47:04;;;;;;;4.80;4.32;;;;;;;;;;6284526;22;20592;-79
2023/12/06 13:49:32;;;;;;;4.53;4.15;;;;;;;;;;6284401;22;20855;-79
2023/12/06 13:52:00;;;;;;;4.90;4.50;;;;;;;;;;6284545;22;20215;-79
2023/12/06 13:54:28;;;;;;;3.85;3.55;;;;;;;;;;6284136;22;20200;-78
2023/12/06 13:56:56;;;;;;;4.05;3.72;;;;;;;;;;6284063;22;20569;-77
2023/12/06 13:59:23;;;;;;;3.92;3.63;;;;;;;;;;6283302;22;20275;-78
2023/12/06 14:01:54;;;;;;;5.68;5.13;;;;;;;;;;6283347;22;20210;-79
2023/12/06 14:04:23;;;;;;;4.80;4.32;;;;;;;;;;6284352;22;20568;-79
2023/12/06 14:06:50;;;;;;;4.70;4.28;;;;;;;;;;6284028;22;20263;-79
2023/12/06 14:09:18;;;;;;;5.80;5.15;;;;;;;;;;6285800;22;20271;-79
2023/12/06 14:11:46;;;;;;;4.90;4.50;;;;;;;;;;6286320;22;20177;-79
2023/12/06 14:14:13;;;;;;;3.55;3.25;;;;;;;;;;6286562;22;20493;-79
2023/12/06 14:16:41;;;;;;;5.82;4.97;;;;;;;;;;6286683;22;20251;-79
2023/12/06 14:19:08;;;;;;;3.80;3.50;;;;;;;;;;6285683;22;20219;-79
2023/12/06 14:21:38;;;;;;;8.07;7.28;;;;;;;;;;6283250;22;20732;-77
2023/12/06 14:24:07;;;;;;;6.80;5.65;;;;;;;;;;6283941;22;20184;-79
2023/12/06 14:26:34;;;;;;;4.53;4.13;;;;;;;;;;6284217;22;20180;-79
2023/12/06 14:29:01;;;;;;;5.22;4.80;;;;;;;;;;6285361;22;20255;-78
2023/12/06 14:31:28;;;;;;;4.20;3.85;;;;;;;;;;6283124;22;20513;-78
2023/12/06 14:33:56;;;;;;;5.28;4.78;;;;;;;;;;6283689;22;20204;-79
2023/12/06 14:36:24;;;;;;;6.30;4.95;;;;;;;;;;6283309;22;20176;-79
2023/12/06 14:38:53;;;;;;;3.92;3.60;;;;;;;;;;6283171;22;20588;-80
2023/12/06 14:41:21;;;;;;;4.10;3.67;;;;;;;;;;6282925;22;20172;-79
2023/12/06 14:43:48;;;;;;;7.45;5.80;;;;;;;;;;6283902;22;20176;-80
2023/12/06 14:46:16;;;;;;;6.63;5.65;;;;;;;;;;6283384;22;20223;-80
2023/12/06 14:48:43;;;;;;;5.00;4.60;;;;;;;;;;6282986;22;20278;-78